sensor_id;sensor_type;location;lat;lon;timestamp;pressure;altitude;pressure_sealevel;temperature;humidity
60820;BME280;46641;48.904;9.126;2022-07-29T00:02:28;98363.75;;;28.56;37.47
60820;BME280;46641;48.904;9.126;2022-07-29T00:07:18;98360.78;;;28.52;37.33
60820;BME280;46641;48.904;9.126;2022-07-29T00:12:08;98348.16;;;28.48;37.44
60820;BME280;46641;48.904;9.126;2022-07-29T00:16:59;98343.28;;;28.45;37.78
60820;BME280;46641;48.904;9.126;2022-07-29T00:21:49;98337.91;;;28.39;37.68
60820;BME280;46641;48.904;9.126;2022-07-29T00:26:39;98339.47;;;28.35;37.89
60820;BME280;46641;48.904;9.126;2022-07-29T00:31:30;98338.66;;;28.30;37.61
60820;BME280;46641;48.904;9.126;2022-07-29T00:36:20;98335.44;;;28.28;37.84
60820;BME280;46641;48.904;9.126;2022-07-29T00:41:13;98335.97;;;28.25;37.97
60820;BME280;46641;48.904;9.126;2022-07-29T00:46:04;98335.16;;;28.19;37.93
60820;BME280;46641;48.904;9.126;2022-07-29T00:50:56;98324.91;;;28.16;37.66
60820;BME280;46641;48.904;9.126;2022-07-29T00:55:47;98323.84;;;28.12;37.87
60820;BME280;46641;48.904;9.126;2022-07-29T01:00:37;98319.78;;;28.09;37.82
60820;BME280;46641;48.904;9.126;2022-07-29T01:05:28;98319.50;;;28.06;37.93
60820;BME280;46641;48.904;9.126;2022-07-29T01:10:20;98316.81;;;28.01;38.14
60820;BME280;46641;48.904;9.126;2022-07-29T01:15:11;98325.69;;;27.96;37.84
60820;BME280;46641;48.904;9.126;2022-07-29T01:25:21;98314.91;;;27.86;38.79
60820;BME280;46641;48.904;9.126;2022-07-29T01:30:15;98314.63;;;27.82;38.58
60820;BME280;46641;48.904;9.126;2022-07-29T01:35:18;98318.09;;;27.78;38.96
60820;BME280;46641;48.904;9.126;2022-07-29T01:40:20;98311.84;;;27.72;39.22
60820;BME280;46641;48.904;9.126;2022-07-29T01:50:16;98301.59;;;27.64;38.30
60820;BME280;46641;48.904;9.126;2022-07-29T01:55:13;98305.91;;;27.60;38.53
60820;BME280;46641;48.904;9.126;2022-07-29T02:00:04;98298.59;;;27.55;38.58
60820;BME280;46641;48.904;9.126;2022-07-29T02:04:56;98301.28;;;27.50;38.60
60820;BME280;46641;48.904;9.126;2022-07-29T02:09:49;98302.63;;;27.47;38.87
60820;BME280;46641;48.904;9.126;2022-07-29T02:14:44;98289.94;;;27.43;39.13
60820;BME280;46641;48.904;9.126;2022-07-29T02:19:37;98299.63;;;27.39;38.76
60820;BME280;46641;48.904;9.126;2022-07-29T02:24:29;98303.09;;;27.34;38.80
60820;BME280;46641;48.904;9.126;2022-07-29T02:29:22;98295.00;;;27.29;38.97
60820;BME280;46641;48.904;9.126;2022-07-29T02:34:15;98294.72;;;27.25;39.05
60820;BME280;46641;48.904;9.126;2022-07-29T02:39:07;98302.78;;;27.20;38.95
60820;BME280;46641;48.904;9.126;2022-07-29T02:44:05;98311.06;;;27.19;39.51
60820;BME280;46641;48.904;9.126;2022-07-29T02:49:02;98300.31;;;27.14;39.32
60820;BME280;46641;48.904;9.126;2022-07-29T02:53:56;98300.81;;;27.11;39.36
60820;BME280;46641;48.904;9.126;2022-07-29T02:58:54;98305.84;;;27.07;39.76
60820;BME280;46641;48.904;9.126;2022-07-29T03:03:46;98303.97;;;27.02;39.12
60820;BME280;46641;48.904;9.126;2022-07-29T03:08:38;98309.03;;;26.99;39.32
60820;BME280;46641;48.904;9.126;2022-07-29T03:13:30;98309.84;;;26.94;39.23
60820;BME280;46641;48.904;9.126;2022-07-29T03:18:21;98308.72;;;26.90;39.43
60820;BME280;46641;48.904;9.126;2022-07-29T03:23:18;98313.00;;;26.86;40.02
60820;BME280;46641;48.904;9.126;2022-07-29T03:28:09;98306.22;;;26.78;39.32
60820;BME280;46641;48.904;9.126;2022-07-29T03:33:00;98307.28;;;26.77;39.41
60820;BME280;46641;48.904;9.126;2022-07-29T03:37:51;98298.13;;;26.73;39.37
60820;BME280;46641;48.904;9.126;2022-07-29T03:42:42;98313.44;;;26.73;39.38
60820;BME280;46641;48.904;9.126;2022-07-29T03:47:35;98313.94;;;26.70;39.46
60820;BME280;46641;48.904;9.126;2022-07-29T03:52:28;98303.72;;;26.67;39.69
60820;BME280;46641;48.904;9.126;2022-07-29T03:57:20;98312.28;;;26.64;39.49
60820;BME280;46641;48.904;9.126;2022-07-29T04:02:13;98303.94;;;26.60;39.40
60820;BME280;46641;48.904;9.126;2022-07-29T04:07:04;98302.84;;;26.56;39.74
60820;BME280;46641;48.904;9.126;2022-07-29T04:11:54;98304.16;;;26.53;39.88
60820;BME280;46641;48.904;9.126;2022-07-29T04:16:45;98311.63;;;26.51;39.50
60820;BME280;46641;48.904;9.126;2022-07-29T04:21:39;98302.25;;;26.49;40.34
60820;BME280;46641;48.904;9.126;2022-07-29T04:26:29;98311.00;;;26.44;39.77
60820;BME280;46641;48.904;9.126;2022-07-29T04:31:20;98307.22;;;26.40;39.70
60820;BME280;46641;48.904;9.126;2022-07-29T04:36:10;98313.69;;;26.39;39.92
60820;BME280;46641;48.904;9.126;2022-07-29T04:41:01;98315.22;;;26.35;39.80
60820;BME280;46641;48.904;9.126;2022-07-29T04:45:51;98317.09;;;26.34;39.90
60820;BME280;46641;48.904;9.126;2022-07-29T04:50:41;98309.84;;;26.30;39.99
60820;BME280;46641;48.904;9.126;2022-07-29T04:55:32;98306.56;;;26.28;39.87
60820;BME280;46641;48.904;9.126;2022-07-29T05:00:22;98301.72;;;26.25;40.08
60820;BME280;46641;48.904;9.126;2022-07-29T05:05:13;98311.91;;;26.23;40.05
60820;BME280;46641;48.904;9.126;2022-07-29T05:10:04;98309.75;;;26.20;40.60
60820;BME280;46641;48.904;9.126;2022-07-29T05:14:54;98325.00;;;26.19;40.42
60820;BME280;46641;48.904;9.126;2022-07-29T05:19:45;98318.03;;;26.18;40.24
60820;BME280;46641;48.904;9.126;2022-07-29T05:24:35;98313.97;;;26.16;40.37
60820;BME280;46641;48.904;9.126;2022-07-29T05:29:25;98321.47;;;26.14;40.25
60820;BME280;46641;48.904;9.126;2022-07-29T05:34:16;98317.72;;;26.15;40.39
60820;BME280;46641;48.904;9.126;2022-07-29T05:39:07;98318.78;;;26.14;40.35
60820;BME280;46641;48.904;9.126;2022-07-29T05:43:57;98325.19;;;26.13;40.38
60820;BME280;46641;48.904;9.126;2022-07-29T05:48:48;98327.34;;;26.10;40.47
60820;BME280;46641;48.904;9.126;2022-07-29T05:53:38;98333.53;;;26.11;40.20
60820;BME280;46641;48.904;9.126;2022-07-29T05:58:29;98338.88;;;26.11;40.31
60820;BME280;46641;48.904;9.126;2022-07-29T06:03:19;98338.06;;;26.10;40.40
60820;BME280;46641;48.904;9.126;2022-07-29T06:08:10;98339.13;;;26.09;40.49
60820;BME280;46641;48.904;9.126;2022-07-29T06:13:00;98350.91;;;26.08;40.53
60820;BME280;46641;48.904;9.126;2022-07-29T06:17:51;98351.19;;;26.07;40.64
60820;BME280;46641;48.904;9.126;2022-07-29T06:22:42;98358.44;;;26.06;40.86
60820;BME280;46641;48.904;9.126;2022-07-29T06:27:32;98353.38;;;26.10;40.62
60820;BME280;46641;48.904;9.126;2022-07-29T06:32:23;98361.97;;;26.12;40.63
60820;BME280;46641;48.904;9.126;2022-07-29T06:37:13;98362.47;;;26.09;40.45
60820;BME280;46641;48.904;9.126;2022-07-29T06:42:04;98366.00;;;26.15;40.48
60820;BME280;46641;48.904;9.126;2022-07-29T06:46:55;98362.25;;;26.16;40.31
60820;BME280;46641;48.904;9.126;2022-07-29T06:51:46;98367.13;;;26.19;40.50
60820;BME280;46641;48.904;9.126;2022-07-29T06:56:36;98376.53;;;26.21;40.53
60820;BME280;46641;48.904;9.126;2022-07-29T07:01:27;98368.25;;;26.23;40.40
60820;BME280;46641;48.904;9.126;2022-07-29T07:06:17;98383.81;;;26.26;40.10
60820;BME280;46641;48.904;9.126;2022-07-29T07:11:08;98384.66;;;26.26;40.43
60820;BME280;46641;48.904;9.126;2022-07-29T07:15:58;98381.72;;;26.28;40.50
60820;BME280;46641;48.904;9.126;2022-07-29T07:20:49;98380.09;;;26.27;40.33
60820;BME280;46641;48.904;9.126;2022-07-29T07:25:39;98389.53;;;26.29;40.23
60820;BME280;46641;48.904;9.126;2022-07-29T07:30:29;98379.59;;;26.30;40.32
60820;BME280;46641;48.904;9.126;2022-07-29T07:35:21;98396.81;;;26.34;40.63
60820;BME280;46641;48.904;9.126;2022-07-29T07:40:12;98396.31;;;26.37;40.42
60820;BME280;46641;48.904;9.126;2022-07-29T07:45:03;98392.53;;;26.38;40.02
60820;BME280;46641;48.904;9.126;2022-07-29T07:49:53;98390.44;;;26.40;40.36
60820;BME280;46641;48.904;9.126;2022-07-29T07:54:43;98385.09;;;26.45;40.35
60820;BME280;46641;48.904;9.126;2022-07-29T07:59:34;98394.03;;;26.51;40.48
60820;BME280;46641;48.904;9.126;2022-07-29T08:04:25;98391.66;;;26.54;40.12
60820;BME280;46641;48.904;9.126;2022-07-29T08:09:15;98395.47;;;26.59;40.27
60820;BME280;46641;48.904;9.126;2022-07-29T08:14:05;98401.97;;;26.63;40.23
60820;BME280;46641;48.904;9.126;2022-07-29T08:18:56;98399.56;;;26.66;40.44
60820;BME280;46641;48.904;9.126;2022-07-29T08:23:46;98403.66;;;26.74;40.27
60820;BME280;46641;48.904;9.126;2022-07-29T08:28:43;98391.59;;;26.76;40.59
60820;BME280;46641;48.904;9.126;2022-07-29T08:33:39;98395.59;;;26.74;40.57
60820;BME280;46641;48.904;9.126;2022-07-29T08:38:29;98394.34;;;26.82;40.31
60820;BME280;46641;48.904;9.126;2022-07-29T08:43:20;98396.81;;;26.88;40.70
60820;BME280;46641;48.904;9.126;2022-07-29T08:48:15;98393.63;;;26.96;40.47
60820;BME280;46641;48.904;9.126;2022-07-29T08:53:07;98391.00;;;27.01;40.21
60820;BME280;46641;48.904;9.126;2022-07-29T08:57:58;98393.72;;;27.07;40.17
60820;BME280;46641;48.904;9.126;2022-07-29T09:02:51;98394.88;;;27.16;40.27
60820;BME280;46641;48.904;9.126;2022-07-29T09:07:46;98398.16;;;27.23;39.96
60820;BME280;46641;48.904;9.126;2022-07-29T09:12:38;98404.69;;;27.32;39.69
60820;BME280;46641;48.904;9.126;2022-07-29T09:17:48;98398.25;;;27.33;40.46
60820;BME280;46641;48.904;9.126;2022-07-29T09:22:39;98402.00;;;26.68;43.33
60820;BME280;46641;48.904;9.126;2022-07-29T09:27:29;98397.34;;;27.22;41.92
60820;BME280;46641;48.904;9.126;2022-07-29T09:32:20;98402.94;;;27.53;41.62
60820;BME280;46641;48.904;9.126;2022-07-29T09:37:10;98396.34;;;27.76;41.35
60820;BME280;46641;48.904;9.126;2022-07-29T09:42:04;98398.56;;;27.94;41.28
60820;BME280;46641;48.904;9.126;2022-07-29T09:47:03;98390.03;;;28.13;40.99
60820;BME280;46641;48.904;9.126;2022-07-29T09:52:03;98379.56;;;28.27;40.64
60820;BME280;46641;48.904;9.126;2022-07-29T09:56:55;98382.59;;;28.40;41.05
60820;BME280;46641;48.904;9.126;2022-07-29T10:01:46;98378.03;;;28.56;40.88
60820;BME280;46641;48.904;9.126;2022-07-29T10:07:00;98379.41;;;28.74;40.54
60820;BME280;46641;48.904;9.126;2022-07-29T10:16:59;98377.78;;;28.83;40.80
60820;BME280;46641;48.904;9.126;2022-07-29T10:21:51;98379.41;;;29.05;41.11
60820;BME280;46641;48.904;9.126;2022-07-29T10:26:42;98360.78;;;29.24;40.79
60820;BME280;46641;48.904;9.126;2022-07-29T10:32:16;98362.09;;;29.42;40.15
60820;BME280;46641;48.904;9.126;2022-07-29T10:42:20;98357.72;;;29.66;40.52
60820;BME280;46641;48.904;9.126;2022-07-29T10:47:22;98354.19;;;29.76;39.94
60820;BME280;46641;48.904;9.126;2022-07-29T10:52:13;98356.31;;;29.79;40.47
60820;BME280;46641;48.904;9.126;2022-07-29T10:57:23;98356.03;;;29.86;40.06
60820;BME280;46641;48.904;9.126;2022-07-29T11:07:21;98337.13;;;29.91;39.75
60820;BME280;46641;48.904;9.126;2022-07-29T11:17:27;98340.34;;;29.93;39.06
60820;BME280;46641;48.904;9.126;2022-07-29T11:22:34;98340.59;;;29.96;39.05
60820;BME280;46641;48.904;9.126;2022-07-29T11:27:30;98347.31;;;29.99;39.06
60820;BME280;46641;48.904;9.126;2022-07-29T11:32:23;98344.63;;;29.99;38.93
60820;BME280;46641;48.904;9.126;2022-07-29T11:37:16;98357.06;;;30.00;38.72
60820;BME280;46641;48.904;9.126;2022-07-29T11:47:07;98351.91;;;30.03;38.87
60820;BME280;46641;48.904;9.126;2022-07-29T11:52:00;98343.44;;;29.71;39.36
60820;BME280;46641;48.904;9.126;2022-07-29T11:56:53;98338.72;;;29.92;38.96
60820;BME280;46641;48.904;9.126;2022-07-29T12:01:57;98351.09;;;30.03;39.22
60820;BME280;46641;48.904;9.126;2022-07-29T12:06:51;98342.97;;;30.08;38.89
60820;BME280;46641;48.904;9.126;2022-07-29T12:11:42;98343.50;;;30.10;38.97
60820;BME280;46641;48.904;9.126;2022-07-29T12:16:36;98347.25;;;30.14;39.09
60820;BME280;46641;48.904;9.126;2022-07-29T12:21:27;98341.84;;;30.14;39.05
60820;BME280;46641;48.904;9.126;2022-07-29T12:26:17;98341.84;;;30.19;39.34
60820;BME280;46641;48.904;9.126;2022-07-29T12:31:14;98346.16;;;30.20;38.96
60820;BME280;46641;48.904;9.126;2022-07-29T12:36:05;98349.38;;;30.22;38.94
60820;BME280;46641;48.904;9.126;2022-07-29T12:40:56;98342.59;;;30.25;39.17
60820;BME280;46641;48.904;9.126;2022-07-29T12:45:54;98336.94;;;30.26;39.18
60820;BME280;46641;48.904;9.126;2022-07-29T12:51:02;98339.34;;;30.28;39.13
60820;BME280;46641;48.904;9.126;2022-07-29T12:55:54;98350.69;;;30.30;38.94
60820;BME280;46641;48.904;9.126;2022-07-29T13:00:45;98345.03;;;30.26;39.23
60820;BME280;46641;48.904;9.126;2022-07-29T13:05:41;98347.19;;;30.30;38.82
60820;BME280;46641;48.904;9.126;2022-07-29T13:10:35;98359.06;;;30.28;39.21
60820;BME280;46641;48.904;9.126;2022-07-29T13:15:26;98357.22;;;29.49;41.23
60820;BME280;46641;48.904;9.126;2022-07-29T13:20:16;98367.06;;;29.94;39.95
60820;BME280;46641;48.904;9.126;2022-07-29T13:25:07;98365.09;;;30.05;39.70
60820;BME280;46641;48.904;9.126;2022-07-29T13:29:59;98372.81;;;29.72;40.95
60820;BME280;46641;48.904;9.126;2022-07-29T13:34:49;98374.78;;;30.11;39.77
60820;BME280;46641;48.904;9.126;2022-07-29T13:39:40;98364.47;;;30.28;39.65
60820;BME280;46641;48.904;9.126;2022-07-29T13:44:30;98360.88;;;30.38;39.34
60820;BME280;46641;48.904;9.126;2022-07-29T13:49:21;98356.81;;;30.41;38.63
60820;BME280;46641;48.904;9.126;2022-07-29T13:54:12;98356.25;;;30.44;38.85
60820;BME280;46641;48.904;9.126;2022-07-29T13:59:02;98349.25;;;30.43;38.98
60820;BME280;46641;48.904;9.126;2022-07-29T14:03:53;98347.59;;;30.47;38.96
60820;BME280;46641;48.904;9.126;2022-07-29T14:08:43;98341.09;;;30.48;38.87
60820;BME280;46641;48.904;9.126;2022-07-29T14:13:34;98341.09;;;30.48;38.66
60820;BME280;46641;48.904;9.126;2022-07-29T14:18:24;98342.72;;;30.49;38.41
60820;BME280;46641;48.904;9.126;2022-07-29T14:23:14;98334.63;;;30.49;38.58
60820;BME280;46641;48.904;9.126;2022-07-29T14:28:05;98334.88;;;30.53;38.78
60820;BME280;46641;48.904;9.126;2022-07-29T14:32:55;98339.19;;;30.54;38.46
60820;BME280;46641;48.904;9.126;2022-07-29T14:37:46;98332.72;;;30.49;38.29
60820;BME280;46641;48.904;9.126;2022-07-29T14:42:36;98335.13;;;30.51;38.58
60820;BME280;46641;48.904;9.126;2022-07-29T14:47:27;98335.38;;;30.55;38.20
60820;BME280;46641;48.904;9.126;2022-07-29T14:52:17;98340.06;;;30.44;38.32
60820;BME280;46641;48.904;9.126;2022-07-29T14:57:08;98334.88;;;30.53;38.09
60820;BME280;46641;48.904;9.126;2022-07-29T15:01:58;98340.50;;;30.56;38.22
60820;BME280;46641;48.904;9.126;2022-07-29T15:06:49;98343.69;;;30.63;37.16
60820;BME280;46641;48.904;9.126;2022-07-29T15:11:39;98356.34;;;30.68;36.93
60820;BME280;46641;48.904;9.126;2022-07-29T15:16:29;98353.38;;;30.69;36.49
60820;BME280;46641;48.904;9.126;2022-07-29T15:21:20;98354.97;;;30.70;36.52
60820;BME280;46641;48.904;9.126;2022-07-29T15:26:10;98354.97;;;30.70;36.09
60820;BME280;46641;48.904;9.126;2022-07-29T15:31:01;98351.47;;;30.70;36.12
60820;BME280;46641;48.904;9.126;2022-07-29T15:35:51;98356.06;;;30.69;36.33
60820;BME280;46641;48.904;9.126;2022-07-29T15:40:41;98362.00;;;30.71;35.72
60820;BME280;46641;48.904;9.126;2022-07-29T15:45:38;98358.78;;;30.69;35.48
60820;BME280;46641;48.904;9.126;2022-07-29T15:50:28;98361.47;;;30.69;35.82
60820;BME280;46641;48.904;9.126;2022-07-29T15:55:19;98358.78;;;30.69;35.89
60820;BME280;46641;48.904;9.126;2022-07-29T16:00:09;98359.34;;;30.66;36.40
60820;BME280;46641;48.904;9.126;2022-07-29T16:05:00;98361.75;;;30.68;36.13
60820;BME280;46641;48.904;9.126;2022-07-29T16:09:50;98354.47;;;30.68;36.12
60820;BME280;46641;48.904;9.126;2022-07-29T16:14:42;98354.72;;;30.67;36.18
60820;BME280;46641;48.904;9.126;2022-07-29T16:19:33;98356.63;;;30.66;36.13
60820;BME280;46641;48.904;9.126;2022-07-29T16:24:23;98359.34;;;30.66;35.64
60820;BME280;46641;48.904;9.126;2022-07-29T16:29:18;98358.53;;;30.66;36.08
60820;BME280;46641;48.904;9.126;2022-07-29T16:34:09;98358.81;;;30.64;36.11
60820;BME280;46641;48.904;9.126;2022-07-29T16:38:59;98359.91;;;30.63;35.99
60820;BME280;46641;48.904;9.126;2022-07-29T16:43:49;98351.25;;;30.61;35.83
60820;BME280;46641;48.904;9.126;2022-07-29T16:48:40;98347.50;;;30.62;35.69
60820;BME280;46641;48.904;9.126;2022-07-29T16:53:30;98360.47;;;30.60;35.78
60820;BME280;46641;48.904;9.126;2022-07-29T16:58:20;98359.66;;;30.60;35.87
60820;BME280;46641;48.904;9.126;2022-07-29T17:03:11;98359.97;;;30.58;35.87
60820;BME280;46641;48.904;9.126;2022-07-29T17:08:01;98362.13;;;30.56;35.80
60820;BME280;46641;48.904;9.126;2022-07-29T17:12:51;98366.44;;;30.57;35.45
60820;BME280;46641;48.904;9.126;2022-07-29T17:17:42;98356.75;;;30.51;35.74
60820;BME280;46641;48.904;9.126;2022-07-29T17:22:32;98362.16;;;30.51;35.54
60820;BME280;46641;48.904;9.126;2022-07-29T17:27:22;98372.16;;;30.50;35.64
60820;BME280;46641;48.904;9.126;2022-07-29T17:32:13;98367.84;;;30.49;35.62
60820;BME280;46641;48.904;9.126;2022-07-29T17:37:05;98368.09;;;30.48;35.34
60820;BME280;46641;48.904;9.126;2022-07-29T17:41:55;98372.72;;;30.47;35.41
60820;BME280;46641;48.904;9.126;2022-07-29T17:46:46;98379.22;;;30.46;35.42
60820;BME280;46641;48.904;9.126;2022-07-29T17:51:36;98375.97;;;30.44;35.31
60820;BME280;46641;48.904;9.126;2022-07-29T17:56:26;98387.06;;;30.43;35.54
60820;BME280;46641;48.904;9.126;2022-07-29T18:01:17;98387.06;;;30.43;35.20
60820;BME280;46641;48.904;9.126;2022-07-29T18:06:07;98390.84;;;30.42;35.14
60820;BME280;46641;48.904;9.126;2022-07-29T18:10:59;98392.22;;;30.39;35.37
60820;BME280;46641;48.904;9.126;2022-07-29T18:15:49;98393.59;;;30.37;35.61
60820;BME280;46641;48.904;9.126;2022-07-29T18:20:41;98400.09;;;30.36;35.32
60820;BME280;46641;48.904;9.126;2022-07-29T18:25:32;98397.66;;;30.34;35.04
60820;BME280;46641;48.904;9.126;2022-07-29T18:30:23;98390.91;;;30.32;35.17
60820;BME280;46641;48.904;9.126;2022-07-29T18:35:13;98399.31;;;30.30;35.19
60820;BME280;46641;48.904;9.126;2022-07-29T18:40:04;98400.66;;;30.27;35.45
60820;BME280;46641;48.904;9.126;2022-07-29T18:44:54;98401.22;;;30.24;35.51
60820;BME280;46641;48.904;9.126;2022-07-29T18:49:44;98394.47;;;30.22;35.73
60820;BME280;46641;48.904;9.126;2022-07-29T18:54:35;98405.00;;;30.18;35.34
60820;BME280;46641;48.904;9.126;2022-07-29T18:59:25;98404.75;;;30.15;35.70
60820;BME280;46641;48.904;9.126;2022-07-29T19:04:15;98408.81;;;30.12;35.52
60820;BME280;46641;48.904;9.126;2022-07-29T19:09:06;98409.34;;;30.09;35.65
60820;BME280;46641;48.904;9.126;2022-07-29T19:14:00;98426.09;;;30.06;35.69
60820;BME280;46641;48.904;9.126;2022-07-29T19:18:50;98432.09;;;30.03;35.87
60820;BME280;46641;48.904;9.126;2022-07-29T19:23:40;98435.34;;;30.00;35.85
60820;BME280;46641;48.904;9.126;2022-07-29T19:28:31;98443.16;;;29.96;35.91
60820;BME280;46641;48.904;9.126;2022-07-29T19:33:21;98463.69;;;29.92;35.81
60820;BME280;46641;48.904;9.126;2022-07-29T19:38:12;98475.31;;;29.88;35.61
60820;BME280;46641;48.904;9.126;2022-07-29T19:43:04;98483.94;;;29.79;35.08
60820;BME280;46641;48.904;9.126;2022-07-29T19:47:54;98486.69;;;29.74;36.13
60820;BME280;46641;48.904;9.126;2022-07-29T19:52:45;98497.22;;;29.66;36.64
60820;BME280;46641;48.904;9.126;2022-07-29T19:57:36;98501.25;;;29.58;37.56
60820;BME280;46641;48.904;9.126;2022-07-29T20:02:26;98501.78;;;29.55;37.79
60820;BME280;46641;48.904;9.126;2022-07-29T20:07:16;98504.22;;;29.51;37.68
60820;BME280;46641;48.904;9.126;2022-07-29T20:12:08;98493.97;;;29.48;37.31
60820;BME280;46641;48.904;9.126;2022-07-29T20:16:58;98491.81;;;29.45;37.75
60820;BME280;46641;48.904;9.126;2022-07-29T20:21:49;98487.75;;;29.43;37.33
60820;BME280;46641;48.904;9.126;2022-07-29T20:26:40;98482.91;;;29.40;37.70
60820;BME280;46641;48.904;9.126;2022-07-29T20:31:31;98486.69;;;29.39;37.78
60820;BME280;46641;48.904;9.126;2022-07-29T20:36:21;98485.34;;;29.36;37.74
60820;BME280;46641;48.904;9.126;2022-07-29T20:41:12;98488.88;;;29.31;37.89
60820;BME280;46641;48.904;9.126;2022-07-29T20:46:03;98482.38;;;29.27;38.27
60820;BME280;46641;48.904;9.126;2022-07-29T20:50:53;98484.00;;;29.23;37.92
60820;BME280;46641;48.904;9.126;2022-07-29T20:55:44;98490.47;;;29.17;37.56
60820;BME280;46641;48.904;9.126;2022-07-29T21:00:34;98488.84;;;29.16;38.26
60820;BME280;46641;48.904;9.126;2022-07-29T21:05:25;98493.16;;;29.12;38.15
60820;BME280;46641;48.904;9.126;2022-07-29T21:10:15;98497.47;;;29.08;38.32
60820;BME280;46641;48.904;9.126;2022-07-29T21:15:07;98505.56;;;29.03;37.96
60820;BME280;46641;48.904;9.126;2022-07-29T21:19:57;98505.81;;;29.01;38.17
60820;BME280;46641;48.904;9.126;2022-07-29T21:24:48;98502.81;;;28.98;37.80
60820;BME280;46641;48.904;9.126;2022-07-29T21:29:38;98508.72;;;28.95;38.02
60820;BME280;46641;48.904;9.126;2022-07-29T21:34:29;98506.56;;;28.92;38.34
60820;BME280;46641;48.904;9.126;2022-07-29T21:39:19;98506.31;;;28.88;37.89
60820;BME280;46641;48.904;9.126;2022-07-29T21:44:10;98507.91;;;28.84;38.14
60820;BME280;46641;48.904;9.126;2022-07-29T21:49:00;98512.22;;;28.80;38.33
60820;BME280;46641;48.904;9.126;2022-07-29T21:53:50;98507.63;;;28.75;38.21
60820;BME280;46641;48.904;9.126;2022-07-29T21:58:40;98515.44;;;28.72;38.35
60820;BME280;46641;48.904;9.126;2022-07-29T22:03:31;98513.53;;;28.67;38.47
60820;BME280;46641;48.904;9.126;2022-07-29T22:08:21;98510.28;;;28.65;38.30
60820;BME280;46641;48.904;9.126;2022-07-29T22:13:11;98517.28;;;28.61;38.50
60820;BME280;46641;48.904;9.126;2022-07-29T22:18:02;98512.16;;;28.54;38.39
60820;BME280;46641;48.904;9.126;2022-07-29T22:22:52;98512.94;;;28.50;38.32
60820;BME280;46641;48.904;9.126;2022-07-29T22:27:43;98513.72;;;28.45;38.10
60820;BME280;46641;48.904;9.126;2022-07-29T22:32:33;98515.34;;;28.41;38.47
60820;BME280;46641;48.904;9.126;2022-07-29T22:37:24;98515.84;;;28.38;38.38
60820;BME280;46641;48.904;9.126;2022-07-29T22:42:14;98524.69;;;28.33;38.80
60820;BME280;46641;48.904;9.126;2022-07-29T22:47:05;98524.69;;;28.28;38.78
60820;BME280;46641;48.904;9.126;2022-07-29T22:51:55;98535.97;;;28.25;38.55
60820;BME280;46641;48.904;9.126;2022-07-29T22:56:46;98543.47;;;28.18;38.77
60820;BME280;46641;48.904;9.126;2022-07-29T23:01:36;98552.31;;;28.13;38.96
60820;BME280;46641;48.904;9.126;2022-07-29T23:06:26;98538.56;;;28.10;39.11
60820;BME280;46641;48.904;9.126;2022-07-29T23:11:17;98545.00;;;28.04;39.13
60820;BME280;46641;48.904;9.126;2022-07-29T23:16:07;98542.81;;;28.01;39.12
60820;BME280;46641;48.904;9.126;2022-07-29T23:20:57;98538.22;;;27.96;38.93
60820;BME280;46641;48.904;9.126;2022-07-29T23:25:48;98529.06;;;27.92;39.08
60820;BME280;46641;48.904;9.126;2022-07-29T23:30:39;98537.66;;;27.89;39.43
60820;BME280;46641;48.904;9.126;2022-07-29T23:35:30;98528.72;;;27.83;39.24
60820;BME280;46641;48.904;9.126;2022-07-29T23:40:20;98542.13;;;27.78;39.02
60820;BME280;46641;48.904;9.126;2022-07-29T23:45:12;98542.09;;;27.73;39.16
60820;BME280;46641;48.904;9.126;2022-07-29T23:50:06;98549.88;;;27.69;39.04
60820;BME280;46641;48.904;9.126;2022-07-29T23:54:57;98552.25;;;27.66;38.88
60820;BME280;46641;48.904;9.126;2022-07-29T23:59:48;98554.38;;;27.64;39.26
